sensor_id;sensor_type;location;lat;lon;timestamp;P1;durP1;ratioP1;P2;durP2;ratioP2
76035;SDS011;64732;56.314;44.068;2023-05-21T00:01:44;41.08;;;21.83;;
76035;SDS011;64732;56.314;44.068;2023-05-21T00:04:05;39.65;;;21.33;;
76035;SDS011;64732;56.314;44.068;2023-05-21T00:06:25;41.13;;;21.65;;
76035;SDS011;64732;56.314;44.068;2023-05-21T00:08:46;39.33;;;20.90;;
76035;SDS011;64732;56.314;44.068;2023-05-21T00:11:09;36.25;;;20.30;;
76035;SDS011;64732;56.314;44.068;2023-05-21T00:13:30;40.63;;;21.60;;
76035;SDS011;64732;56.314;44.068;2023-05-21T00:15:54;44.22;;;21.90;;
76035;SDS011;64732;56.314;44.068;2023-05-21T00:18:15;44.33;;;20.92;;
76035;SDS011;64732;56.314;44.068;2023-05-21T00:20:35;34.80;;;19.50;;
76035;SDS011;64732;56.314;44.068;2023-05-21T00:22:56;76.15;;;20.83;;
76035;SDS011;64732;56.314;44.068;2023-05-21T00:25:17;72.43;;;20.13;;
76035;SDS011;64732;56.314;44.068;2023-05-21T00:27:38;269.13;;;27.67;;
76035;SDS011;64732;56.314;44.068;2023-05-21T00:30:00;29.05;;;17.88;;
76035;SDS011;64732;56.314;44.068;2023-05-21T00:32:23;144.25;;;21.10;;
76035;SDS011;64732;56.314;44.068;2023-05-21T00:34:44;53.40;;;17.85;;
76035;SDS011;64732;56.314;44.068;2023-05-21T00:37:05;60.55;;;18.45;;
76035;SDS011;64732;56.314;44.068;2023-05-21T00:39:26;148.02;;;20.70;;
76035;SDS011;64732;56.314;44.068;2023-05-21T00:41:47;338.65;;;27.30;;
76035;SDS011;64732;56.314;44.068;2023-05-21T00:44:09;48.88;;;19.30;;
76035;SDS011;64732;56.314;44.068;2023-05-21T00:46:30;34.22;;;18.08;;
76035;SDS011;64732;56.314;44.068;2023-05-21T00:48:53;162.98;;;21.95;;
76035;SDS011;64732;56.314;44.068;2023-05-21T00:51:15;64.03;;;19.38;;
76035;SDS011;64732;56.314;44.068;2023-05-21T00:53:36;32.38;;;18.73;;
76035;SDS011;64732;56.314;44.068;2023-05-21T00:55:57;36.20;;;17.98;;
76035;SDS011;64732;56.314;44.068;2023-05-21T00:58:18;51.17;;;20.77;;
76035;SDS011;64732;56.314;44.068;2023-05-21T01:00:39;46.08;;;20.83;;
76035;SDS011;64732;56.314;44.068;2023-05-21T01:03:00;46.03;;;20.98;;
76035;SDS011;64732;56.314;44.068;2023-05-21T01:05:24;59.42;;;21.00;;
76035;SDS011;64732;56.314;44.068;2023-05-21T01:07:46;125.28;;;22.50;;
76035;SDS011;64732;56.314;44.068;2023-05-21T01:10:08;42.53;;;20.02;;
76035;SDS011;64732;56.314;44.068;2023-05-21T01:12:30;213.45;;;24.02;;
76035;SDS011;64732;56.314;44.068;2023-05-21T01:14:51;135.40;;;22.52;;
76035;SDS011;64732;56.314;44.068;2023-05-21T01:17:13;88.60;;;21.33;;
76035;SDS011;64732;56.314;44.068;2023-05-21T01:19:34;69.60;;;21.13;;
76035;SDS011;64732;56.314;44.068;2023-05-21T01:21:59;363.17;;;27.73;;
76035;SDS011;64732;56.314;44.068;2023-05-21T01:24:23;261.90;;;24.90;;
76035;SDS011;64732;56.314;44.068;2023-05-21T01:26:44;974.95;;;50.20;;
76035;SDS011;64732;56.314;44.068;2023-05-21T01:29:05;484.90;;;35.47;;
76035;SDS011;64732;56.314;44.068;2023-05-21T01:31:29;818.20;;;43.40;;
76035;SDS011;64732;56.314;44.068;2023-05-21T01:33:54;846.60;;;41.80;;
76035;SDS011;64732;56.314;44.068;2023-05-21T01:36:20;638.65;;;40.30;;
76035;SDS011;64732;56.314;44.068;2023-05-21T01:38:45;917.70;;;48.42;;
76035;SDS011;64732;56.314;44.068;2023-05-21T01:41:12;810.25;;;42.65;;
76035;SDS011;64732;56.314;44.068;2023-05-21T01:43:37;515.20;;;34.70;;
76035;SDS011;64732;56.314;44.068;2023-05-21T01:45:59;478.92;;;34.75;;
76035;SDS011;64732;56.314;44.068;2023-05-21T01:48:20;509.58;;;32.08;;
76035;SDS011;64732;56.314;44.068;2023-05-21T01:50:42;942.45;;;49.38;;
76035;SDS011;64732;56.314;44.068;2023-05-21T01:53:04;195.02;;;23.92;;
76035;SDS011;64732;56.314;44.068;2023-05-21T01:55:25;236.88;;;23.65;;
76035;SDS011;64732;56.314;44.068;2023-05-21T01:57:49;766.40;;;44.38;;
76035;SDS011;64732;56.314;44.068;2023-05-21T02:00:11;849.90;;;51.15;;
76035;SDS011;64732;56.314;44.068;2023-05-21T02:02:33;1004.25;;;59.25;;
76035;SDS011;64732;56.314;44.068;2023-05-21T02:04:54;938.42;;;58.15;;
76035;SDS011;64732;56.314;44.068;2023-05-21T02:07:15;981.00;;;59.55;;
76035;SDS011;64732;56.314;44.068;2023-05-21T02:09:36;1057.80;;;60.63;;
76035;SDS011;64732;56.314;44.068;2023-05-21T02:11:57;927.08;;;54.78;;
76035;SDS011;64732;56.314;44.068;2023-05-21T02:14:20;920.17;;;54.72;;
76035;SDS011;64732;56.314;44.068;2023-05-21T02:16:41;708.40;;;47.15;;
76035;SDS011;64732;56.314;44.068;2023-05-21T02:19:02;913.95;;;54.90;;
76035;SDS011;64732;56.314;44.068;2023-05-21T02:21:23;465.65;;;32.83;;
76035;SDS011;64732;56.314;44.068;2023-05-21T02:23:44;745.20;;;45.70;;
76035;SDS011;64732;56.314;44.068;2023-05-21T02:26:05;928.55;;;57.25;;
76035;SDS011;64732;56.314;44.068;2023-05-21T02:28:26;1007.78;;;56.65;;
76035;SDS011;64732;56.314;44.068;2023-05-21T02:30:50;557.15;;;38.47;;
76035;SDS011;64732;56.314;44.068;2023-05-21T02:33:11;819.15;;;48.40;;
76035;SDS011;64732;56.314;44.068;2023-05-21T02:35:32;496.55;;;35.58;;
76035;SDS011;64732;56.314;44.068;2023-05-21T02:37:53;812.58;;;48.53;;
76035;SDS011;64732;56.314;44.068;2023-05-21T02:40:14;690.80;;;44.88;;
76035;SDS011;64732;56.314;44.068;2023-05-21T02:42:35;517.47;;;38.05;;
76035;SDS011;64732;56.314;44.068;2023-05-21T02:44:57;698.28;;;44.85;;
76035;SDS011;64732;56.314;44.068;2023-05-21T02:47:20;324.42;;;31.52;;
76035;SDS011;64732;56.314;44.068;2023-05-21T02:49:41;148.38;;;24.48;;
76035;SDS011;64732;56.314;44.068;2023-05-21T02:52:02;66.43;;;20.42;;
76035;SDS011;64732;56.314;44.068;2023-05-21T02:54:24;29.73;;;17.92;;
76035;SDS011;64732;56.314;44.068;2023-05-21T02:56:45;32.40;;;19.80;;
76035;SDS011;64732;56.314;44.068;2023-05-21T02:59:06;34.08;;;18.70;;
76035;SDS011;64732;56.314;44.068;2023-05-21T03:01:27;29.25;;;18.23;;
76035;SDS011;64732;56.314;44.068;2023-05-21T03:03:51;27.08;;;17.35;;
76035;SDS011;64732;56.314;44.068;2023-05-21T03:06:11;25.38;;;17.00;;
76035;SDS011;64732;56.314;44.068;2023-05-21T03:08:32;25.75;;;17.05;;
76035;SDS011;64732;56.314;44.068;2023-05-21T03:10:53;26.55;;;16.75;;
76035;SDS011;64732;56.314;44.068;2023-05-21T03:13:14;28.92;;;17.42;;
76035;SDS011;64732;56.314;44.068;2023-05-21T03:15:35;25.45;;;16.63;;
76035;SDS011;64732;56.314;44.068;2023-05-21T03:17:56;25.38;;;17.40;;
76035;SDS011;64732;56.314;44.068;2023-05-21T03:20:20;27.55;;;17.27;;
76035;SDS011;64732;56.314;44.068;2023-05-21T03:22:41;29.40;;;18.40;;
76035;SDS011;64732;56.314;44.068;2023-05-21T03:25:02;25.90;;;17.13;;
76035;SDS011;64732;56.314;44.068;2023-05-21T03:27:27;34.08;;;18.65;;
76035;SDS011;64732;56.314;44.068;2023-05-21T03:29:48;27.15;;;17.45;;
76035;SDS011;64732;56.314;44.068;2023-05-21T03:32:09;30.90;;;16.98;;
76035;SDS011;64732;56.314;44.068;2023-05-21T03:34:30;26.77;;;18.52;;
76035;SDS011;64732;56.314;44.068;2023-05-21T03:36:54;28.52;;;18.70;;
76035;SDS011;64732;56.314;44.068;2023-05-21T03:39:15;35.55;;;18.20;;
76035;SDS011;64732;56.314;44.068;2023-05-21T03:41:36;28.48;;;17.17;;
76035;SDS011;64732;56.314;44.068;2023-05-21T03:43:57;29.17;;;17.65;;
76035;SDS011;64732;56.314;44.068;2023-05-21T03:46:18;25.48;;;17.45;;
76035;SDS011;64732;56.314;44.068;2023-05-21T03:48:39;24.38;;;16.67;;
76035;SDS011;64732;56.314;44.068;2023-05-21T03:51:00;28.85;;;17.15;;
76035;SDS011;64732;56.314;44.068;2023-05-21T03:53:24;24.58;;;16.23;;
76035;SDS011;64732;56.314;44.068;2023-05-21T03:55:45;25.90;;;16.17;;
76035;SDS011;64732;56.314;44.068;2023-05-21T03:58:06;28.35;;;16.70;;
76035;SDS011;64732;56.314;44.068;2023-05-21T04:00:26;26.15;;;16.60;;
76035;SDS011;64732;56.314;44.068;2023-05-21T04:02:47;24.38;;;15.52;;
76035;SDS011;64732;56.314;44.068;2023-05-21T04:05:08;22.90;;;15.15;;
76035;SDS011;64732;56.314;44.068;2023-05-21T04:07:29;59.97;;;36.25;;
76035;SDS011;64732;56.314;44.068;2023-05-21T04:09:53;25.73;;;17.63;;
76035;SDS011;64732;56.314;44.068;2023-05-21T04:12:14;23.35;;;15.45;;
76035;SDS011;64732;56.314;44.068;2023-05-21T04:14:35;26.10;;;16.38;;
76035;SDS011;64732;56.314;44.068;2023-05-21T04:16:56;27.73;;;16.95;;
76035;SDS011;64732;56.314;44.068;2023-05-21T04:19:17;38.45;;;24.15;;
76035;SDS011;64732;56.314;44.068;2023-05-21T04:21:38;27.13;;;17.58;;
76035;SDS011;64732;56.314;44.068;2023-05-21T04:23:59;20.48;;;14.68;;
76035;SDS011;64732;56.314;44.068;2023-05-21T04:26:23;24.88;;;16.83;;
76035;SDS011;64732;56.314;44.068;2023-05-21T04:28:44;25.30;;;15.68;;
76035;SDS011;64732;56.314;44.068;2023-05-21T04:31:05;20.50;;;14.63;;
76035;SDS011;64732;56.314;44.068;2023-05-21T04:33:26;21.30;;;14.68;;
76035;SDS011;64732;56.314;44.068;2023-05-21T04:35:48;30.05;;;15.73;;
76035;SDS011;64732;56.314;44.068;2023-05-21T04:38:10;29.30;;;19.98;;
76035;SDS011;64732;56.314;44.068;2023-05-21T04:40:31;29.58;;;18.48;;
76035;SDS011;64732;56.314;44.068;2023-05-21T04:42:55;20.42;;;14.00;;
76035;SDS011;64732;56.314;44.068;2023-05-21T04:45:16;21.67;;;13.90;;
76035;SDS011;64732;56.314;44.068;2023-05-21T04:47:37;22.08;;;14.32;;
76035;SDS011;64732;56.314;44.068;2023-05-21T04:49:58;17.67;;;12.82;;
76035;SDS011;64732;56.314;44.068;2023-05-21T04:52:19;18.75;;;13.07;;
76035;SDS011;64732;56.314;44.068;2023-05-21T04:54:40;18.48;;;12.57;;
76035;SDS011;64732;56.314;44.068;2023-05-21T04:57:01;29.65;;;13.65;;
76035;SDS011;64732;56.314;44.068;2023-05-21T04:59:25;18.75;;;13.07;;
76035;SDS011;64732;56.314;44.068;2023-05-21T05:01:46;19.48;;;12.60;;
76035;SDS011;64732;56.314;44.068;2023-05-21T05:04:07;18.70;;;13.05;;
76035;SDS011;64732;56.314;44.068;2023-05-21T05:06:28;19.70;;;13.23;;
76035;SDS011;64732;56.314;44.068;2023-05-21T05:08:49;19.42;;;11.98;;
76035;SDS011;64732;56.314;44.068;2023-05-21T05:11:10;18.42;;;12.10;;
76035;SDS011;64732;56.314;44.068;2023-05-21T05:13:31;19.00;;;11.57;;
76035;SDS011;64732;56.314;44.068;2023-05-21T05:15:55;22.00;;;10.57;;
76035;SDS011;64732;56.314;44.068;2023-05-21T05:18:18;24.85;;;11.05;;
76035;SDS011;64732;56.314;44.068;2023-05-21T05:20:39;18.08;;;9.88;;
76035;SDS011;64732;56.314;44.068;2023-05-21T05:23:00;15.55;;;9.85;;
76035;SDS011;64732;56.314;44.068;2023-05-21T05:25:21;20.50;;;11.23;;
76035;SDS011;64732;56.314;44.068;2023-05-21T05:27:42;17.77;;;10.82;;
76035;SDS011;64732;56.314;44.068;2023-05-21T05:30:04;17.02;;;10.77;;
76035;SDS011;64732;56.314;44.068;2023-05-21T05:32:29;30.92;;;19.30;;
76035;SDS011;64732;56.314;44.068;2023-05-21T05:34:50;16.95;;;10.77;;
76035;SDS011;64732;56.314;44.068;2023-05-21T05:37:12;25.45;;;13.80;;
76035;SDS011;64732;56.314;44.068;2023-05-21T05:39:33;18.48;;;11.27;;
76035;SDS011;64732;56.314;44.068;2023-05-21T05:41:54;16.98;;;10.70;;
76035;SDS011;64732;56.314;44.068;2023-05-21T05:44:15;16.85;;;10.00;;
76035;SDS011;64732;56.314;44.068;2023-05-21T05:46:36;18.60;;;11.15;;
76035;SDS011;64732;56.314;44.068;2023-05-21T05:48:59;17.42;;;9.63;;
76035;SDS011;64732;56.314;44.068;2023-05-21T05:51:21;22.83;;;10.77;;
76035;SDS011;64732;56.314;44.068;2023-05-21T05:53:42;19.45;;;8.55;;
76035;SDS011;64732;56.314;44.068;2023-05-21T05:56:04;20.52;;;9.55;;
76035;SDS011;64732;56.314;44.068;2023-05-21T05:58:25;14.35;;;8.48;;
76035;SDS011;64732;56.314;44.068;2023-05-21T06:00:46;14.93;;;9.20;;
76035;SDS011;64732;56.314;44.068;2023-05-21T06:03:07;16.02;;;10.30;;
76035;SDS011;64732;56.314;44.068;2023-05-21T06:05:31;17.98;;;8.15;;
76035;SDS011;64732;56.314;44.068;2023-05-21T06:07:53;14.05;;;8.70;;
76035;SDS011;64732;56.314;44.068;2023-05-21T06:10:14;15.25;;;8.32;;
76035;SDS011;64732;56.314;44.068;2023-05-21T06:12:35;18.90;;;8.93;;
76035;SDS011;64732;56.314;44.068;2023-05-21T06:14:56;16.08;;;9.00;;
76035;SDS011;64732;56.314;44.068;2023-05-21T06:17:17;12.15;;;7.82;;
76035;SDS011;64732;56.314;44.068;2023-05-21T06:19:38;17.02;;;8.35;;
76035;SDS011;64732;56.314;44.068;2023-05-21T06:22:02;15.57;;;9.13;;
76035;SDS011;64732;56.314;44.068;2023-05-21T06:24:24;14.00;;;8.18;;
76035;SDS011;64732;56.314;44.068;2023-05-21T06:26:45;12.60;;;7.85;;
76035;SDS011;64732;56.314;44.068;2023-05-21T06:29:06;14.00;;;8.20;;
76035;SDS011;64732;56.314;44.068;2023-05-21T06:31:27;22.83;;;9.45;;
76035;SDS011;64732;56.314;44.068;2023-05-21T06:33:48;12.23;;;8.02;;
76035;SDS011;64732;56.314;44.068;2023-05-21T06:36:09;13.55;;;7.72;;
76035;SDS011;64732;56.314;44.068;2023-05-21T06:38:33;14.68;;;7.65;;
76035;SDS011;64732;56.314;44.068;2023-05-21T06:40:54;14.65;;;8.23;;
76035;SDS011;64732;56.314;44.068;2023-05-21T06:43:15;17.83;;;7.88;;
76035;SDS011;64732;56.314;44.068;2023-05-21T06:45:36;12.55;;;7.40;;
76035;SDS011;64732;56.314;44.068;2023-05-21T06:47:57;16.65;;;7.43;;
76035;SDS011;64732;56.314;44.068;2023-05-21T06:50:18;17.17;;;7.60;;
76035;SDS011;64732;56.314;44.068;2023-05-21T06:52:39;16.85;;;8.38;;
76035;SDS011;64732;56.314;44.068;2023-05-21T06:55:03;13.32;;;8.10;;
76035;SDS011;64732;56.314;44.068;2023-05-21T06:57:26;14.52;;;7.82;;
76035;SDS011;64732;56.314;44.068;2023-05-21T06:59:47;17.35;;;8.05;;
76035;SDS011;64732;56.314;44.068;2023-05-21T07:02:08;13.85;;;8.40;;
76035;SDS011;64732;56.314;44.068;2023-05-21T07:04:29;12.35;;;7.03;;
76035;SDS011;64732;56.314;44.068;2023-05-21T07:06:50;14.27;;;7.88;;
76035;SDS011;64732;56.314;44.068;2023-05-21T07:09:11;15.27;;;7.43;;
76035;SDS011;64732;56.314;44.068;2023-05-21T07:11:37;13.40;;;6.70;;
76035;SDS011;64732;56.314;44.068;2023-05-21T07:13:59;12.18;;;7.05;;
76035;SDS011;64732;56.314;44.068;2023-05-21T07:16:20;9.93;;;7.13;;
76035;SDS011;64732;56.314;44.068;2023-05-21T07:18:41;13.48;;;7.38;;
76035;SDS011;64732;56.314;44.068;2023-05-21T07:21:03;14.18;;;7.40;;
76035;SDS011;64732;56.314;44.068;2023-05-21T07:23:24;17.85;;;8.15;;
76035;SDS011;64732;56.314;44.068;2023-05-21T07:25:45;12.40;;;7.13;;
76035;SDS011;64732;56.314;44.068;2023-05-21T07:28:10;10.38;;;6.63;;
76035;SDS011;64732;56.314;44.068;2023-05-21T07:30:31;12.73;;;7.05;;
76035;SDS011;64732;56.314;44.068;2023-05-21T07:32:52;12.13;;;6.88;;
76035;SDS011;64732;56.314;44.068;2023-05-21T07:35:13;11.88;;;6.13;;
76035;SDS011;64732;56.314;44.068;2023-05-21T07:37:34;13.85;;;6.40;;
76035;SDS011;64732;56.314;44.068;2023-05-21T07:39:55;14.45;;;6.55;;
76035;SDS011;64732;56.314;44.068;2023-05-21T07:42:17;20.05;;;6.15;;
76035;SDS011;64732;56.314;44.068;2023-05-21T07:44:40;12.93;;;6.55;;
76035;SDS011;64732;56.314;44.068;2023-05-21T07:47:01;14.70;;;7.20;;
76035;SDS011;64732;56.314;44.068;2023-05-21T07:49:23;11.45;;;7.25;;
76035;SDS011;64732;56.314;44.068;2023-05-21T07:51:44;11.20;;;6.50;;
76035;SDS011;64732;56.314;44.068;2023-05-21T07:54:05;13.38;;;6.82;;
76035;SDS011;64732;56.314;44.068;2023-05-21T07:56:26;13.38;;;6.45;;
76035;SDS011;64732;56.314;44.068;2023-05-21T07:58:47;9.55;;;6.25;;
76035;SDS011;64732;56.314;44.068;2023-05-21T08:01:11;13.27;;;6.60;;
76035;SDS011;64732;56.314;44.068;2023-05-21T08:03:32;13.13;;;6.40;;
76035;SDS011;64732;56.314;44.068;2023-05-21T08:05:53;13.43;;;6.65;;
76035;SDS011;64732;56.314;44.068;2023-05-21T08:08:14;12.10;;;6.30;;
76035;SDS011;64732;56.314;44.068;2023-05-21T08:10:35;12.02;;;6.18;;
76035;SDS011;64732;56.314;44.068;2023-05-21T08:12:56;14.38;;;6.10;;
76035;SDS011;64732;56.314;44.068;2023-05-21T08:15:17;12.88;;;6.25;;
76035;SDS011;64732;56.314;44.068;2023-05-21T08:17:41;14.63;;;6.70;;
76035;SDS011;64732;56.314;44.068;2023-05-21T08:20:02;13.38;;;5.18;;
76035;SDS011;64732;56.314;44.068;2023-05-21T08:22:25;10.32;;;5.35;;
76035;SDS011;64732;56.314;44.068;2023-05-21T08:24:46;9.07;;;4.70;;
76035;SDS011;64732;56.314;44.068;2023-05-21T08:27:07;13.18;;;5.90;;
76035;SDS011;64732;56.314;44.068;2023-05-21T08:32:00;9.98;;;5.47;;
76035;SDS011;64732;56.314;44.068;2023-05-21T08:34:23;12.30;;;5.45;;
76035;SDS011;64732;56.314;44.068;2023-05-21T08:36:44;11.30;;;5.10;;
76035;SDS011;64732;56.314;44.068;2023-05-21T08:39:05;15.38;;;4.22;;
76035;SDS011;64732;56.314;44.068;2023-05-21T08:41:26;9.18;;;3.83;;
76035;SDS011;64732;56.314;44.068;2023-05-21T08:43:52;10.93;;;2.95;;
76035;SDS011;64732;56.314;44.068;2023-05-21T08:46:15;6.15;;;3.13;;
76035;SDS011;64732;56.314;44.068;2023-05-21T08:48:38;7.05;;;3.05;;
76035;SDS011;64732;56.314;44.068;2023-05-21T08:51:03;12.45;;;3.60;;
76035;SDS011;64732;56.314;44.068;2023-05-21T08:53:24;7.40;;;3.45;;
76035;SDS011;64732;56.314;44.068;2023-05-21T08:55:45;12.38;;;3.90;;
76035;SDS011;64732;56.314;44.068;2023-05-21T08:58:06;7.55;;;3.38;;
76035;SDS011;64732;56.314;44.068;2023-05-21T09:00:27;8.70;;;3.78;;
76035;SDS011;64732;56.314;44.068;2023-05-21T09:02:48;12.80;;;3.63;;
76035;SDS011;64732;56.314;44.068;2023-05-21T09:05:10;10.95;;;3.53;;
76035;SDS011;64732;56.314;44.068;2023-05-21T09:07:36;11.05;;;3.17;;
76035;SDS011;64732;56.314;44.068;2023-05-21T09:10:02;10.95;;;3.20;;
76035;SDS011;64732;56.314;44.068;2023-05-21T09:12:25;7.65;;;2.72;;
76035;SDS011;64732;56.314;44.068;2023-05-21T09:14:47;8.95;;;2.65;;
76035;SDS011;64732;56.314;44.068;2023-05-21T09:17:10;10.35;;;3.28;;
76035;SDS011;64732;56.314;44.068;2023-05-21T09:19:32;12.48;;;3.10;;
76035;SDS011;64732;56.314;44.068;2023-05-21T09:21:53;9.57;;;2.80;;
76035;SDS011;64732;56.314;44.068;2023-05-21T09:24:23;7.32;;;2.25;;
76035;SDS011;64732;56.314;44.068;2023-05-21T09:26:44;6.68;;;2.45;;
76035;SDS011;64732;56.314;44.068;2023-05-21T09:29:05;9.55;;;2.60;;
76035;SDS011;64732;56.314;44.068;2023-05-21T09:31:26;10.73;;;2.28;;
76035;SDS011;64732;56.314;44.068;2023-05-21T09:33:49;7.90;;;2.53;;
76035;SDS011;64732;56.314;44.068;2023-05-21T09:36:11;5.70;;;2.08;;
76035;SDS011;64732;56.314;44.068;2023-05-21T09:38:32;11.13;;;2.53;;
76035;SDS011;64732;56.314;44.068;2023-05-21T09:40:56;8.30;;;2.28;;
76035;SDS011;64732;56.314;44.068;2023-05-21T09:43:17;12.95;;;2.90;;
76035;SDS011;64732;56.314;44.068;2023-05-21T09:45:49;10.68;;;2.00;;
76035;SDS011;64732;56.314;44.068;2023-05-21T09:48:12;13.13;;;2.40;;
76035;SDS011;64732;56.314;44.068;2023-05-21T09:50:34;8.15;;;2.60;;
76035;SDS011;64732;56.314;44.068;2023-05-21T09:52:55;8.95;;;2.10;;
76035;SDS011;64732;56.314;44.068;2023-05-21T09:55:16;9.43;;;2.17;;
76035;SDS011;64732;56.314;44.068;2023-05-21T09:57:49;8.68;;;2.80;;
76035;SDS011;64732;56.314;44.068;2023-05-21T10:00:29;9.55;;;1.95;;
76035;SDS011;64732;56.314;44.068;2023-05-21T10:02:52;10.88;;;2.25;;
76035;SDS011;64732;56.314;44.068;2023-05-21T10:05:14;10.02;;;2.22;;
76035;SDS011;64732;56.314;44.068;2023-05-21T10:07:36;7.95;;;2.30;;
76035;SDS011;64732;56.314;44.068;2023-05-21T10:09:58;9.75;;;3.97;;
76035;SDS011;64732;56.314;44.068;2023-05-21T10:12:22;11.88;;;4.88;;
76035;SDS011;64732;56.314;44.068;2023-05-21T10:14:52;8.32;;;2.95;;
76035;SDS011;64732;56.314;44.068;2023-05-21T10:17:19;7.25;;;2.20;;
76035;SDS011;64732;56.314;44.068;2023-05-21T10:19:40;15.38;;;3.25;;
76035;SDS011;64732;56.314;44.068;2023-05-21T10:22:01;9.20;;;2.38;;
76035;SDS011;64732;56.314;44.068;2023-05-21T10:24:22;13.38;;;2.55;;
76035;SDS011;64732;56.314;44.068;2023-05-21T10:26:44;10.88;;;2.55;;
76035;SDS011;64732;56.314;44.068;2023-05-21T10:29:05;7.68;;;2.22;;
76035;SDS011;64732;56.314;44.068;2023-05-21T10:31:30;13.20;;;5.18;;
76035;SDS011;64732;56.314;44.068;2023-05-21T10:33:54;6.45;;;2.67;;
76035;SDS011;64732;56.314;44.068;2023-05-21T10:36:16;8.82;;;2.35;;
76035;SDS011;64732;56.314;44.068;2023-05-21T10:38:37;14.05;;;3.05;;
76035;SDS011;64732;56.314;44.068;2023-05-21T10:40:59;8.07;;;2.30;;
76035;SDS011;64732;56.314;44.068;2023-05-21T10:43:33;9.70;;;2.17;;
76035;SDS011;64732;56.314;44.068;2023-05-21T10:49:09;7.70;;;2.40;;
76035;SDS011;64732;56.314;44.068;2023-05-21T10:51:40;8.85;;;3.08;;
76035;SDS011;64732;56.314;44.068;2023-05-21T10:54:15;7.88;;;2.33;;
76035;SDS011;64732;56.314;44.068;2023-05-21T10:56:52;5.65;;;2.10;;
76035;SDS011;64732;56.314;44.068;2023-05-21T10:59:19;3.55;;;1.85;;
76035;SDS011;64732;56.314;44.068;2023-05-21T11:01:49;6.17;;;2.40;;
76035;SDS011;64732;56.314;44.068;2023-05-21T11:04:11;7.55;;;2.42;;
76035;SDS011;64732;56.314;44.068;2023-05-21T11:06:32;13.82;;;2.70;;
76035;SDS011;64732;56.314;44.068;2023-05-21T11:08:56;6.97;;;1.83;;
76035;SDS011;64732;56.314;44.068;2023-05-21T11:14:00;7.25;;;2.17;;
76035;SDS011;64732;56.314;44.068;2023-05-21T11:16:22;8.38;;;2.00;;
76035;SDS011;64732;56.314;44.068;2023-05-21T11:21:22;5.57;;;2.20;;
76035;SDS011;64732;56.314;44.068;2023-05-21T11:23:50;5.63;;;2.60;;
76035;SDS011;64732;56.314;44.068;2023-05-21T11:26:11;11.23;;;3.25;;
76035;SDS011;64732;56.314;44.068;2023-05-21T11:28:35;8.50;;;3.65;;
76035;SDS011;64732;56.314;44.068;2023-05-21T11:33:46;6.25;;;2.05;;
76035;SDS011;64732;56.314;44.068;2023-05-21T11:36:12;13.25;;;2.22;;
76035;SDS011;64732;56.314;44.068;2023-05-21T11:38:34;3.70;;;1.90;;
76035;SDS011;64732;56.314;44.068;2023-05-21T11:41:00;5.80;;;2.20;;
76035;SDS011;64732;56.314;44.068;2023-05-21T11:43:22;6.50;;;2.00;;
76035;SDS011;64732;56.314;44.068;2023-05-21T11:45:43;3.38;;;2.03;;
76035;SDS011;64732;56.314;44.068;2023-05-21T11:48:05;6.07;;;1.80;;
76035;SDS011;64732;56.314;44.068;2023-05-21T11:50:26;5.75;;;2.10;;
76035;SDS011;64732;56.314;44.068;2023-05-21T11:52:50;4.53;;;1.90;;
76035;SDS011;64732;56.314;44.068;2023-05-21T11:55:11;7.72;;;2.45;;
76035;SDS011;64732;56.314;44.068;2023-05-21T11:57:32;7.28;;;2.42;;
76035;SDS011;64732;56.314;44.068;2023-05-21T11:59:53;6.60;;;2.13;;
76035;SDS011;64732;56.314;44.068;2023-05-21T12:02:15;8.38;;;2.10;;
76035;SDS011;64732;56.314;44.068;2023-05-21T12:04:36;3.83;;;1.75;;
76035;SDS011;64732;56.314;44.068;2023-05-21T12:06:57;8.48;;;2.58;;
76035;SDS011;64732;56.314;44.068;2023-05-21T12:09:21;6.47;;;2.30;;
76035;SDS011;64732;56.314;44.068;2023-05-21T12:11:42;8.50;;;2.17;;
76035;SDS011;64732;56.314;44.068;2023-05-21T12:14:05;4.95;;;2.20;;
76035;SDS011;64732;56.314;44.068;2023-05-21T12:16:26;10.05;;;2.20;;
76035;SDS011;64732;56.314;44.068;2023-05-21T12:18:47;4.15;;;1.70;;
76035;SDS011;64732;56.314;44.068;2023-05-21T12:21:08;10.70;;;2.63;;
76035;SDS011;64732;56.314;44.068;2023-05-21T12:23:30;8.32;;;2.45;;
76035;SDS011;64732;56.314;44.068;2023-05-21T12:25:54;8.82;;;2.70;;
76035;SDS011;64732;56.314;44.068;2023-05-21T12:28:15;6.50;;;2.30;;
76035;SDS011;64732;56.314;44.068;2023-05-21T12:30:36;6.93;;;2.30;;
76035;SDS011;64732;56.314;44.068;2023-05-21T12:32:57;10.30;;;2.38;;
76035;SDS011;64732;56.314;44.068;2023-05-21T12:35:19;10.23;;;2.03;;
76035;SDS011;64732;56.314;44.068;2023-05-21T12:37:40;8.15;;;2.30;;
76035;SDS011;64732;56.314;44.068;2023-05-21T12:40:03;5.38;;;2.00;;
76035;SDS011;64732;56.314;44.068;2023-05-21T12:42:30;8.23;;;2.30;;
76035;SDS011;64732;56.314;44.068;2023-05-21T12:44:52;9.40;;;2.15;;
76035;SDS011;64732;56.314;44.068;2023-05-21T12:47:13;7.38;;;2.00;;
76035;SDS011;64732;56.314;44.068;2023-05-21T12:49:35;5.25;;;1.90;;
76035;SDS011;64732;56.314;44.068;2023-05-21T12:51:56;5.97;;;2.13;;
76035;SDS011;64732;56.314;44.068;2023-05-21T12:54:17;6.07;;;1.70;;
76035;SDS011;64732;56.314;44.068;2023-05-21T12:56:43;5.20;;;2.03;;
76035;SDS011;64732;56.314;44.068;2023-05-21T12:59:07;4.63;;;1.88;;
76035;SDS011;64732;56.314;44.068;2023-05-21T13:01:35;7.97;;;2.15;;
76035;SDS011;64732;56.314;44.068;2023-05-21T13:03:56;5.65;;;2.47;;
76035;SDS011;64732;56.314;44.068;2023-05-21T13:06:17;30.38;;;20.90;;
76035;SDS011;64732;56.314;44.068;2023-05-21T13:08:38;12.80;;;4.63;;
76035;SDS011;64732;56.314;44.068;2023-05-21T13:11:02;9.55;;;3.40;;
76035;SDS011;64732;56.314;44.068;2023-05-21T13:13:29;7.43;;;2.10;;
76035;SDS011;64732;56.314;44.068;2023-05-21T13:15:54;8.45;;;2.30;;
76035;SDS011;64732;56.314;44.068;2023-05-21T13:18:16;8.65;;;2.25;;
76035;SDS011;64732;56.314;44.068;2023-05-21T13:20:40;6.28;;;2.10;;
76035;SDS011;64732;56.314;44.068;2023-05-21T13:23:01;7.38;;;2.58;;
76035;SDS011;64732;56.314;44.068;2023-05-21T13:25:26;8.40;;;2.50;;
76035;SDS011;64732;56.314;44.068;2023-05-21T13:27:48;7.10;;;2.47;;
76035;SDS011;64732;56.314;44.068;2023-05-21T13:30:11;13.13;;;2.45;;
76035;SDS011;64732;56.314;44.068;2023-05-21T13:32:38;4.35;;;1.77;;
76035;SDS011;64732;56.314;44.068;2023-05-21T13:34:59;7.85;;;1.80;;
76035;SDS011;64732;56.314;44.068;2023-05-21T13:37:20;6.00;;;1.83;;
76035;SDS011;64732;56.314;44.068;2023-05-21T13:39:41;4.22;;;1.70;;
76035;SDS011;64732;56.314;44.068;2023-05-21T13:42:03;4.03;;;1.83;;
76035;SDS011;64732;56.314;44.068;2023-05-21T13:44:24;7.25;;;1.70;;
76035;SDS011;64732;56.314;44.068;2023-05-21T13:46:45;4.70;;;1.77;;
76035;SDS011;64732;56.314;44.068;2023-05-21T13:49:09;8.60;;;2.05;;
76035;SDS011;64732;56.314;44.068;2023-05-21T13:51:30;4.45;;;2.05;;
76035;SDS011;64732;56.314;44.068;2023-05-21T13:53:51;8.07;;;2.28;;
76035;SDS011;64732;56.314;44.068;2023-05-21T13:56:12;5.43;;;2.10;;
76035;SDS011;64732;56.314;44.068;2023-05-21T13:58:33;5.93;;;2.17;;
76035;SDS011;64732;56.314;44.068;2023-05-21T14:00:54;7.30;;;2.22;;
76035;SDS011;64732;56.314;44.068;2023-05-21T14:03:15;6.10;;;2.13;;